Pagrindinis puslapis
METAR-TAF:

METAR-TAF

Oro uostai :

Albenga, Italija

platuma: 44-03N, ilguma: 008-07E, Aukštis: 45 m

Dabartinis oras

Ataskaita buvo paskelbta 1 valandą ir 31 minutes, ne 05:52 UTC
Vėjas 3 kt nuo kintamojo kryptimis
Temperatūra 24°C
Drėgmė 69%
Slėgis 1010 hPa
Matomumas 10 km arba daugiau
nėra debesų žemiau 1500 m ir nėra kamuolinių lietaus debesų

METAR: LIMG 200552Z VRB03KT CAVOK 24/18 Q1010

Laikas: 09:23 (07:23 UTC)

Prognozė

Ataskaita buvo paskelbta 28 minutes, ne 06:55 UTC
Prognozė galioja nuo 20 metu 07 UTC su 21 metu 06 UTC
Vėjas 5 kt nuo kintamojo kryptimis
Matomumas 10 km arba daugiau
Mažai debesys ne aukštis 4000 ft
Tapsmas
nuo 20 metu 08 UTC su 20 metu 10 UTC
Vėjas 10 kt iš Pietų/Pietryčių
Tapsmas
nuo 20 metu 17 UTC su 20 metu 20 UTC
Vėjas 5 kt nuo kintamojo kryptimis

TAF: LIMG 200655Z 2007/2106 VRB05KT 9999 FEW040 BECMG 2008/2010 16010KT BECMG 2017/2020 VRB05KT

Orai ataskaitas ir orų prognozės (METAR, TAF).

turimą stotys yra geltonos ir raudonos taškus žemėlapyje.

Perkelti pele per norėdami pamatyti stoties vardą.

Tada spustelėkite, norėdami matyti oro stebėjimo ir prognozės.

Norėdami pakeisti žemėlapį: spustelėkite ant žalios mygtukų su juodo kryžiaus žemyn,; žalią mygtuką su brūkšneliu, jei norite nutolinti; arba žalių rodyklių gretimoms žemėlapius.


METAR-TAF: